北海道・東北TAF電文


新千歳(RJCC)
4/12 20h
TAF RJCC 121105Z 1212/1318 18006KT 9999 FEW003 BKN015 TEMPO
1212/1221 2000 BR FEW001 BKN003 TEMPO 1221/1300 3000 BR
FEW003 BKN006 TEMPO 1306/1309 3000 BR FEW003 BKN006 TEMPO
1309/1318 2000 BR FEW003 BKN005=

旭川(RJEC)
4/12 20h
TAF RJEC 121105Z 1212/1318 17005KT 9999 FEW030 BECMG 1303/1306
27010KT BECMG 1309/1312 17006KT=

帯広(RJCB)
4/12 20h
TAF RJCB 121105Z 1212/1318 16005KT 7000 FEW003 BKN015 TEMPO
1212/1300 0700 FG VV001 BECMG 1213/1215 34005KT BECMG
1300/1303 15010KT TEMPO 1309/1318 2000 BR FEW003 BKN005=

釧路(RJCK)
4/12 20h
TAF RJCK 121108Z 1212/1318 35004KT 7000 FEW003 BKN015 TEMPO
1212/1214 3000 BR FEW001 BKN003 TEMPO 1214/1300 0700 FG
VV001 BECMG 1300/1303 19011KT TEMPO 1309/1312 1500 BR
FEW001 BKN002 TEMPO 1312/1318 0700 FG VV001=

女満別(RJCM)
4/12 20h
TAF RJCM 121108Z 1212/1318 19006KT 9999 FEW040=

函館(RJCH)
4/12 20h
TAF RJCH 121108Z 1212/1318 05005KT 9999 FEW015 TEMPO 1218/1300 3000
BR FEW003 BKN006 BECMG 1221/1223 18010KT TEMPO 1300/1303
FEW005 BKN008 BECMG 1306/1309 32004KT=

青森(RJSA)
4/12 20h
TAF RJSA 121106Z 1212/1318 04004KT 9999 FEW020 BECMG 1216/1218 1500
BR FEW001 BKN003 TEMPO 1218/1300 0700 FG BECMG 1300/1303
9999 NSW FEW040 BECMG 1306/1309 20006KT=

秋田(RJSK)
4/12 20h
TAF RJSK 121106Z 1212/1318 13004KT 9999 FEW030 BECMG 1300/1303
29010KT BECMG 1312/1315 13004KT=

花巻(RJSI)
4/12 20h
TAF RJSI 121106Z 1212/1318 19005KT 9999 FEW030 BECMG 1212/1214
02004KT TEMPO 1218/1222 3000 BR BECMG 1303/1306 24005KT
BECMG 1315/1318 02004KT=

仙台(RJSS)
4/12 20h
TAF RJSS 121105Z 1212/1318 32004KT 9999 FEW010 SCT020 BECMG
1300/1303 14008KT BECMG 1309/1312 26004KT=

福島(RJSF)
4/12 20h
TAF RJSF 121105Z 1212/1318 36005KT 9999 FEW005 SCT012 TEMPO
1215/1223 1500 BR FEW001 BKN003 BECMG 1309/1312 14004KT=
Copyright(c) 2014 International Meteorological & Oceanographic Consultants Co,.Ltd. All Rights Reserved. Design by http://f-tpl.com